Time,TemperatureF,DewpointF,PressureIn,WindDirection,WindDirectionDegrees,WindSpeedMPH,WindSpeedGustMPH,Humidity,HourlyPrecipIn,Conditions,Clouds,dailyrainin,SoftwareType,DateUTC
2013-05-15 00:00:00,63.4,55.0,29.57,SE,134,0.0,4.0,74,0.00,,-RA,0.00,VWS V14.01,2013-05-15 04:00:00,
2013-05-15 00:01:00,63.4,55.0,29.57,SE,134,0.0,4.0,74,0.00,,-RA,0.00,VWS V14.01,2013-05-15 04:01:00,
2013-05-15 00:02:00,63.6,55.2,29.57,SE,134,0.0,7.0,74,0.00,,-RA,0.00,VWS V14.01,2013-05-15 04:02:00,
2013-05-15 00:03:00,63.6,54.8,29.57,SE,133,0.0,5.0,73,0.00,,-RA,0.00,VWS V14.01,2013-05-15 04:03:00,
2013-05-15 00:08:00,63.9,54.7,29.57,SE,133,0.0,0.0,72,0.00,,-RA,0.00,VWS V14.01,2013-05-15 04:08:00,
2013-05-15 00:09:00,64.1,54.9,29.57,SE,133,0.0,0.0,72,0.00,,-RA,0.00,VWS V14.01,2013-05-15 04:09:00,
2013-05-15 00:14:00,64.4,54.8,29.56,SE,130,0.0,6.0,71,0.00,,-RA,0.00,VWS V14.01,2013-05-15 04:14:00,
2013-05-15 00:20:00,64.7,54.7,29.56,SE,130,0.0,0.0,70,0.00,,-RA,0.00,VWS V14.01,2013-05-15 04:20:00,
2013-05-15 00:25:00,65.0,55.0,29.55,SE,130,0.0,0.0,70,0.00,,BKN180,0.00,VWS V14.01,2013-05-15 04:25:00,
2013-05-15 00:30:00,65.3,54.9,29.55,SE,130,0.0,0.0,69,0.00,,BKN180,0.00,VWS V14.01,2013-05-15 04:30:00,
2013-05-15 00:35:00,65.6,55.2,29.55,ESE,120,0.0,1.0,69,0.00,,BKN180,0.00,VWS V14.01,2013-05-15 04:35:00,
2013-05-15 00:40:00,65.8,55.0,29.56,SE,126,0.0,1.0,68,0.00,,BKN180,0.00,VWS V14.01,2013-05-15 04:40:00,
2013-05-15 00:45:00,66.1,54.8,29.57,SE,126,0.0,0.0,67,0.00,,BKN180,0.00,VWS V14.01,2013-05-15 04:45:00,
2013-05-15 00:50:00,66.2,54.5,29.56,SE,126,0.0,1.0,66,0.00,,BKN180,0.00,VWS V14.01,2013-05-15 04:50:00,
2013-05-15 00:55:00,66.4,54.7,29.56,SE,126,0.0,4.0,66,0.00,,BKN180,0.00,VWS V14.01,2013-05-15 04:55:00,
2013-05-15 01:00:00,66.5,54.4,29.56,SE,126,0.0,0.0,65,0.00,,BKN180,0.00,VWS V14.01,2013-05-15 05:00:00,
2013-05-15 01:05:00,66.6,54.5,29.55,SE,126,0.0,0.0,65,0.00,,BKN180,0.00,VWS V14.01,2013-05-15 05:05:00,
2013-05-15 01:10:00,66.6,54.5,29.55,SE,126,0.0,0.0,65,0.00,,BKN180,0.00,VWS V14.01,2013-05-15 05:10:00,
2013-05-15 01:15:00,66.6,54.5,29.54,SE,126,0.0,0.0,65,0.00,,BKN180,0.00,VWS V14.01,2013-05-15 05:15:00,
2013-05-15 01:20:00,66.6,54.5,29.54,SE,126,0.0,0.0,65,0.00,,BKN180,0.00,VWS V14.01,2013-05-15 05:20:00,
2013-05-15 01:25:00,66.4,54.7,29.53,SE,126,0.0,0.0,66,0.00,,-RA,0.00,VWS V14.01,2013-05-15 05:25:00,
2013-05-15 01:30:00,66.2,54.5,29.53,SE,126,0.0,0.0,66,0.00,,-RA,0.00,VWS V14.01,2013-05-15 05:30:00,
2013-05-15 01:35:00,65.8,54.5,29.53,SE,126,0.0,0.0,67,0.00,,-RA,0.00,VWS V14.01,2013-05-15 05:35:00,
2013-05-15 01:40:00,65.5,54.7,29.53,SE,126,0.0,0.0,68,0.00,,-RA,0.00,VWS V14.01,2013-05-15 05:40:00,
2013-05-15 01:45:00,65.2,54.4,29.52,SE,126,0.0,0.0,68,0.00,,-RA,0.00,VWS V14.01,2013-05-15 05:45:00,
2013-05-15 01:50:00,64.9,54.5,29.53,SE,126,0.0,0.0,69,0.00,,-RA,0.00,VWS V14.01,2013-05-15 05:50:00,
2013-05-15 01:55:00,64.6,54.6,29.52,SE,126,0.0,0.0,70,0.00,,-RA,0.00,VWS V14.01,2013-05-15 05:55:00,
2013-05-15 02:00:00,64.3,54.7,29.52,SE,126,0.0,0.0,71,0.00,,CLR,0.00,VWS V14.01,2013-05-15 06:00:00,
2013-05-15 02:05:00,63.9,54.3,29.52,SE,126,0.0,0.0,71,0.00,,CLR,0.00,VWS V14.01,2013-05-15 06:05:00,
2013-05-15 02:10:00,63.7,54.1,29.52,SE,126,0.0,0.0,71,0.00,,CLR,0.00,VWS V14.01,2013-05-15 06:10:00,
2013-05-15 02:15:00,63.3,53.8,29.52,SE,126,0.0,0.0,71,0.00,,CLR,0.00,VWS V14.01,2013-05-15 06:15:00,
2013-05-15 02:20:00,63.1,53.6,29.52,SE,126,0.0,0.0,71,0.00,,CLR,0.00,VWS V14.01,2013-05-15 06:20:00,
2013-05-15 02:25:00,62.8,53.7,29.52,SE,126,0.0,0.0,72,0.00,,CLR,0.00,VWS V14.01,2013-05-15 06:25:00,
2013-05-15 02:31:00,62.5,53.7,29.52,SE,126,0.0,0.0,73,0.00,,CLR,0.00,VWS V14.01,2013-05-15 06:31:00,
2013-05-15 02:36:00,62.3,54.3,29.51,SE,126,0.0,1.0,75,0.00,,CLR,0.00,VWS V14.01,2013-05-15 06:36:00,
2013-05-15 02:41:00,62.3,55.0,29.51,SE,132,0.0,4.0,77,0.00,,CLR,0.00,VWS V14.01,2013-05-15 06:41:00,
2013-05-15 02:46:00,62.8,56.2,29.51,SSE,160,6.0,8.0,79,0.00,,CLR,0.00,VWS V14.01,2013-05-15 06:46:00,
2013-05-15 02:51:00,63.3,57.0,29.50,SSE,164,0.0,6.0,80,0.00,,CLR,0.00,VWS V14.01,2013-05-15 06:51:00,
2013-05-15 02:56:00,64.3,58.3,29.50,South,170,0.0,1.0,81,0.00,,CLR,0.00,VWS V14.01,2013-05-15 06:56:00,
2013-05-15 03:01:00,65.3,59.0,29.50,South,177,0.0,4.0,80,0.00,,CLR,0.00,VWS V14.01,2013-05-15 07:01:00,
2013-05-15 03:06:00,66.2,59.5,29.50,SSW,207,6.0,8.0,79,0.00,,CLR,0.00,VWS V14.01,2013-05-15 07:06:00,
2013-05-15 03:11:00,67.9,60.1,29.50,SSW,207,10.0,11.0,76,0.00,,CLR,0.00,VWS V14.01,2013-05-15 07:11:00,
2013-05-15 03:16:00,69.2,60.2,29.50,SW,215,5.0,11.0,73,0.00,,CLR,0.00,VWS V14.01,2013-05-15 07:16:00,
2013-05-15 03:22:00,70.4,60.2,29.50,South,181,2.0,9.0,70,0.00,,CLR,0.00,VWS V14.01,2013-05-15 07:22:00,
2013-05-15 03:27:00,71.3,59.8,29.50,SSW,211,12.0,16.0,67,0.00,,CLR,0.00,VWS V14.01,2013-05-15 07:27:00,
2013-05-15 03:32:00,71.9,59.9,29.50,SSW,204,9.0,11.0,66,0.00,,CLR,0.00,VWS V14.01,2013-05-15 07:32:00,
2013-05-15 03:37:00,72.4,59.5,29.50,SW,217,0.0,6.0,64,0.00,,CLR,0.00,VWS V14.01,2013-05-15 07:37:00,
2013-05-15 03:42:00,72.7,59.4,29.50,SSW,209,3.0,5.0,63,0.00,,CLR,0.00,VWS V14.01,2013-05-15 07:42:00,
2013-05-15 03:47:00,72.7,59.4,29.50,SSW,197,0.0,4.0,63,0.00,,CLR,0.00,VWS V14.01,2013-05-15 07:47:00,
2013-05-15 03:52:00,72.8,59.5,29.50,SW,216,6.0,9.0,63,0.00,,CLR,0.00,VWS V14.01,2013-05-15 07:52:00,
2013-05-15 03:57:00,72.8,59.0,29.50,South,184,0.0,5.0,62,0.00,,CLR,0.00,VWS V14.01,2013-05-15 07:57:00,
2013-05-15 04:02:00,72.9,59.1,29.50,SW,215,0.0,5.0,62,0.00,,CLR,0.00,VWS V14.01,2013-05-15 08:02:00,
2013-05-15 04:07:00,72.9,58.7,29.50,SW,228,0.0,7.0,61,0.00,,CLR,0.00,VWS V14.01,2013-05-15 08:07:00,
2013-05-15 04:12:00,73.0,58.8,29.50,SSW,209,8.0,12.0,61,0.00,,CLR,0.00,VWS V14.01,2013-05-15 08:12:00,
2013-05-15 04:17:00,73.2,58.5,29.50,SW,226,0.0,7.0,60,0.00,,CLR,0.00,VWS V14.01,2013-05-15 08:17:00,
2013-05-15 04:22:00,73.4,58.2,29.50,SW,230,0.0,11.0,59,0.00,,CLR,0.00,VWS V14.01,2013-05-15 08:22:00,
2013-05-15 04:27:00,73.7,58.0,29.50,SW,226,5.0,10.0,58,0.00,,CLR,0.00,VWS V14.01,2013-05-15 08:27:00,
2013-05-15 04:32:00,73.8,57.6,29.50,SW,232,7.0,18.0,57,0.00,,CLR,0.00,VWS V14.01,2013-05-15 08:32:00,
2013-05-15 04:37:00,73.9,57.7,29.50,SSW,213,0.0,8.0,57,0.00,,CLR,0.00,VWS V14.01,2013-05-15 08:37:00,
2013-05-15 04:42:00,73.8,57.1,29.50,SW,230,2.0,8.0,56,0.00,,CLR,0.00,VWS V14.01,2013-05-15 08:42:00,
2013-05-15 04:47:00,73.6,57.0,29.51,WSW,250,9.0,13.0,56,0.00,,CLR,0.00,VWS V14.01,2013-05-15 08:47:00,
2013-05-15 04:52:00,73.3,56.7,29.51,WSW,239,7.0,12.0,56,0.00,,CLR,0.00,VWS V14.01,2013-05-15 08:52:00,
2013-05-15 04:57:00,72.9,56.3,29.51,SW,234,16.0,16.0,56,0.00,,CLR,0.00,VWS V14.01,2013-05-15 08:57:00,
2013-05-15 05:02:00,72.3,55.7,29.51,WSW,252,4.0,20.0,56,0.00,,CLR,0.00,VWS V14.01,2013-05-15 09:02:00,
2013-05-15 05:07:00,71.8,55.8,29.51,WSW,251,0.0,5.0,57,0.00,,CLR,0.00,VWS V14.01,2013-05-15 09:07:00,
2013-05-15 05:12:00,71.2,55.7,29.52,SSW,197,2.0,17.0,58,0.00,,CLR,0.00,VWS V14.01,2013-05-15 09:12:00,
2013-05-15 05:17:00,70.7,55.7,29.52,SW,233,2.0,7.0,59,0.00,,CLR,0.00,VWS V14.01,2013-05-15 09:17:00,
2013-05-15 05:22:00,70.3,55.3,29.52,WSW,249,5.0,6.0,59,0.00,,CLR,0.00,VWS V14.01,2013-05-15 09:22:00,
2013-05-15 05:28:00,69.9,55.4,29.52,SW,229,5.0,10.0,60,0.00,,CLR,0.00,VWS V14.01,2013-05-15 09:28:00,
2013-05-15 05:33:00,69.6,55.6,29.52,WSW,249,0.0,5.0,61,0.00,,CLR,0.00,VWS V14.01,2013-05-15 09:33:00,
2013-05-15 05:38:00,69.3,55.7,29.53,SW,228,4.0,16.0,62,0.00,,CLR,0.00,VWS V14.01,2013-05-15 09:38:00,
2013-05-15 05:43:00,69.1,55.5,29.53,WSW,248,2.0,8.0,62,0.00,,CLR,0.00,VWS V14.01,2013-05-15 09:43:00,
2013-05-15 05:48:00,69.0,55.5,29.53,SW,236,6.0,10.0,62,0.00,,CLR,0.00,VWS V14.01,2013-05-15 09:48:00,
2013-05-15 05:53:00,68.9,55.4,29.54,WSW,253,2.0,2.0,62,0.00,,CLR,0.00,VWS V14.01,2013-05-15 09:53:00,
2013-05-15 05:58:00,68.6,55.1,29.54,WSW,249,2.0,10.0,62,0.00,,CLR,0.00,VWS V14.01,2013-05-15 09:58:00,
2013-05-15 06:03:00,68.3,54.8,29.54,WSW,256,0.0,4.0,62,0.00,,FEW230,0.00,VWS V14.01,2013-05-15 10:03:00,
2013-05-15 06:08:00,67.9,54.8,29.54,SW,235,2.0,5.0,63,0.00,,FEW230,0.00,VWS V14.01,2013-05-15 10:08:00,
2013-05-15 06:13:00,67.5,54.5,29.55,West,263,6.0,6.0,63,0.00,,FEW230,0.00,VWS V14.01,2013-05-15 10:13:00,
2013-05-15 06:18:00,67.0,54.0,29.55,SW,236,2.0,8.0,63,0.00,,FEW230,0.00,VWS V14.01,2013-05-15 10:18:00,
2013-05-15 06:23:00,66.7,54.2,29.55,WSW,253,0.0,4.0,64,0.00,,FEW230,0.00,VWS V14.01,2013-05-15 10:23:00,
2013-05-15 06:28:00,66.3,53.8,29.55,West,267,0.0,5.0,64,0.00,,FEW230,0.00,VWS V14.01,2013-05-15 10:28:00,
2013-05-15 06:33:00,66.1,53.2,29.56,WSW,257,0.0,5.0,63,0.00,,FEW230,0.00,VWS V14.01,2013-05-15 10:33:00,
2013-05-15 06:38:00,66.0,52.6,29.56,West,269,5.0,7.0,62,0.00,,FEW230,0.00,VWS V14.01,2013-05-15 10:38:00,
2013-05-15 06:43:00,65.8,52.0,29.56,WSW,251,0.0,6.0,61,0.00,,FEW230,0.00,VWS V14.01,2013-05-15 10:43:00,
2013-05-15 06:48:00,65.6,51.4,29.56,West,259,2.0,2.0,60,0.00,,FEW230,0.00,VWS V14.01,2013-05-15 10:48:00,
2013-05-15 06:53:00,65.5,50.8,29.57,WNW,285,0.0,6.0,59,0.00,,FEW230,0.00,VWS V14.01,2013-05-15 10:53:00,
2013-05-15 06:58:00,65.4,50.2,29.57,West,261,0.0,9.0,58,0.00,,FEW230,0.00,VWS V14.01,2013-05-15 10:58:00,
2013-05-15 07:03:00,65.4,50.2,29.57,SW,232,5.0,5.0,58,0.00,,SCT230,0.00,VWS V14.01,2013-05-15 11:03:00,
2013-05-15 07:09:00,65.3,50.2,29.58,WSW,254,0.0,4.0,58,0.00,,SCT230,0.00,VWS V14.01,2013-05-15 11:09:00,
2013-05-15 07:14:00,65.2,50.1,29.58,WSW,255,0.0,6.0,58,0.00,,SCT230,0.00,VWS V14.01,2013-05-15 11:14:00,
2013-05-15 07:19:00,65.1,50.0,29.58,WNW,290,0.0,5.0,58,0.00,,SCT230,0.00,VWS V14.01,2013-05-15 11:19:00,
2013-05-15 07:24:00,65.0,49.9,29.58,WSW,249,0.0,5.0,58,0.00,,SCT230,0.00,VWS V14.01,2013-05-15 11:24:00,
2013-05-15 07:30:00,65.0,50.3,29.59,WSW,257,0.0,0.0,59,0.00,,SCT230,0.00,VWS V14.01,2013-05-15 11:30:00,
2013-05-15 07:35:00,65.1,50.0,29.59,West,261,0.0,7.0,58,0.00,,SCT230,0.00,VWS V14.01,2013-05-15 11:35:00,
2013-05-15 07:42:00,65.2,50.5,29.60,WSW,246,0.0,0.0,59,0.00,,SCT230,0.00,VWS V14.01,2013-05-15 11:42:00,
2013-05-15 07:47:00,65.3,50.2,29.60,WSW,249,7.0,7.0,58,0.00,,SCT230,0.00,VWS V14.01,2013-05-15 11:47:00,
2013-05-15 07:52:00,65.4,50.7,29.60,WSW,253,0.0,0.0,59,0.00,,SCT230,0.00,VWS V14.01,2013-05-15 11:52:00,
2013-05-15 07:57:00,65.5,50.3,29.61,WSW,247,0.0,0.0,58,0.00,,SCT230,0.00,VWS V14.01,2013-05-15 11:57:00,
2013-05-15 08:02:00,65.7,50.5,29.61,WSW,240,0.0,0.0,58,0.00,,SCT230,0.00,VWS V14.01,2013-05-15 12:02:00,
2013-05-15 08:08:00,65.9,50.7,29.62,SW,226,6.0,8.0,58,0.00,,SCT230,0.00,VWS V14.01,2013-05-15 12:08:00,
2013-05-15 08:13:00,66.0,50.8,29.62,SW,232,0.0,0.0,58,0.00,,SCT230,0.00,VWS V14.01,2013-05-15 12:13:00,
2013-05-15 08:18:00,66.2,51.0,29.62,WSW,238,0.0,5.0,58,0.00,,SCT230,0.00,VWS V14.01,2013-05-15 12:18:00,
2013-05-15 08:23:00,66.4,50.7,29.63,SW,229,4.0,6.0,57,0.00,,SCT230,0.00,VWS V14.01,2013-05-15 12:23:00,
2013-05-15 08:28:00,66.7,50.5,29.63,SW,234,2.0,7.0,56,0.00,,SCT230,0.00,VWS V14.01,2013-05-15 12:28:00,
2013-05-15 08:35:00,67.1,50.9,29.63,WSW,239,0.0,7.0,56,0.00,,SCT230,0.00,VWS V14.01,2013-05-15 12:35:00,
2013-05-15 08:40:00,67.4,51.2,29.63,WSW,240,0.0,0.0,56,0.00,,SCT230,0.00,VWS V14.01,2013-05-15 12:40:00,
2013-05-15 08:45:00,67.6,50.4,29.63,West,259,4.0,7.0,54,0.00,,SCT230,0.00,VWS V14.01,2013-05-15 12:45:00,
2013-05-15 08:50:00,67.8,50.6,29.64,WSW,238,4.0,5.0,54,0.00,,SCT230,0.00,VWS V14.01,2013-05-15 12:50:00,
2013-05-15 08:55:00,68.0,51.7,29.64,SW,228,3.0,8.0,56,0.00,,SCT230,0.00,VWS V14.01,2013-05-15 12:55:00,
2013-05-15 09:01:00,68.3,51.5,29.64,WSW,239,0.0,4.0,55,0.00,,FEW210,0.00,VWS V14.01,2013-05-15 13:01:00,
2013-05-15 09:06:00,68.7,51.4,29.64,West,276,0.0,1.0,54,0.00,,FEW210,0.00,VWS V14.01,2013-05-15 13:06:00,
2013-05-15 09:11:00,69.1,51.3,29.65,WSW,245,0.0,5.0,53,0.00,,FEW210,0.00,VWS V14.01,2013-05-15 13:11:00,
2013-05-15 09:18:00,69.6,51.2,29.65,West,272,3.0,5.0,52,0.00,,FEW210,0.00,VWS V14.01,2013-05-15 13:18:00,
2013-05-15 09:23:00,69.8,50.9,29.65,West,270,0.0,0.0,51,0.00,,FEW210,0.00,VWS V14.01,2013-05-15 13:23:00,
2013-05-15 09:29:00,70.1,52.2,29.65,WSW,255,7.0,8.0,53,0.00,,FEW210,0.00,VWS V14.01,2013-05-15 13:29:00,
2013-05-15 09:35:00,70.4,51.4,29.66,WNW,283,0.0,0.0,51,0.00,,FEW210,0.00,VWS V14.01,2013-05-15 13:35:00,
2013-05-15 09:40:00,70.5,51.5,29.66,WSW,243,0.0,6.0,51,0.00,,FEW210,0.00,VWS V14.01,2013-05-15 13:40:00,
2013-05-15 09:45:00,70.7,52.2,29.66,WNW,291,0.0,0.0,52,0.00,,FEW210,0.00,VWS V14.01,2013-05-15 13:45:00,
2013-05-15 09:50:00,70.9,51.9,29.66,West,264,8.0,11.0,51,0.00,,FEW210,0.00,VWS V14.01,2013-05-15 13:50:00,
2013-05-15 09:55:00,71.0,52.5,29.66,WSW,258,5.0,11.0,52,0.00,,FEW210,0.00,VWS V14.01,2013-05-15 13:55:00,
2013-05-15 10:00:00,71.3,52.8,29.67,West,269,11.0,17.0,52,0.00,,FEW210,0.00,VWS V14.01,2013-05-15 14:00:00,
2013-05-15 10:06:00,71.5,50.8,29.67,NW,309,10.0,17.0,48,0.00,,FEW220,0.00,VWS V14.01,2013-05-15 14:06:00,
2013-05-15 10:11:00,71.8,51.1,29.67,WNW,290,3.0,9.0,48,0.00,,FEW220,0.00,VWS V14.01,2013-05-15 14:11:00,
2013-05-15 10:16:00,72.1,51.3,29.67,West,277,7.0,11.0,48,0.00,,FEW220,0.00,VWS V14.01,2013-05-15 14:16:00,
2013-05-15 10:21:00,72.3,52.1,29.67,West,280,2.0,3.0,49,0.00,,FEW220,0.00,VWS V14.01,2013-05-15 14:21:00,
2013-05-15 10:27:00,72.7,52.5,29.67,West,274,9.0,9.0,49,0.00,,FEW220,0.00,VWS V14.01,2013-05-15 14:27:00,
2013-05-15 10:32:00,72.9,51.5,29.67,WNW,284,7.0,7.0,47,0.00,,FEW220,0.00,VWS V14.01,2013-05-15 14:32:00,
2013-05-15 10:37:00,73.1,52.3,29.67,WNW,286,4.0,17.0,48,0.00,,FEW220,0.00,VWS V14.01,2013-05-15 14:37:00,
2013-05-15 10:42:00,73.3,51.3,29.67,NW,308,2.0,13.0,46,0.00,,FEW220,0.00,VWS V14.01,2013-05-15 14:42:00,
2013-05-15 10:48:00,73.3,50.7,29.67,West,265,7.0,12.0,45,0.00,,FEW220,0.00,VWS V14.01,2013-05-15 14:48:00,
2013-05-15 10:53:00,73.3,51.9,29.68,WNW,292,4.0,7.0,47,0.00,,FEW220,0.00,VWS V14.01,2013-05-15 14:53:00,
2013-05-15 10:59:00,73.6,52.2,29.68,NW,320,7.0,13.0,47,0.00,,FEW220,0.00,VWS V14.01,2013-05-15 14:59:00,
2013-05-15 11:04:00,73.7,52.8,29.69,NW,304,0.0,6.0,48,0.00,,FEW220,0.00,VWS V14.01,2013-05-15 15:04:00,
2013-05-15 11:09:00,74.0,51.9,29.69,NNW,328,10.0,12.0,46,0.00,,SCT230,0.00,VWS V14.01,2013-05-15 15:09:00,
2013-05-15 11:14:00,74.2,52.1,29.69,WSW,258,6.0,6.0,46,0.00,,SCT230,0.00,VWS V14.01,2013-05-15 15:14:00,
2013-05-15 11:19:00,74.2,52.1,29.69,West,279,0.0,8.0,46,0.00,,SCT230,0.00,VWS V14.01,2013-05-15 15:19:00,
2013-05-15 11:25:00,74.3,52.8,29.70,West,270,5.0,9.0,47,0.00,,SCT230,0.00,VWS V14.01,2013-05-15 15:25:00,
2013-05-15 11:30:00,74.3,52.2,29.70,WNW,284,12.0,18.0,46,0.00,,SCT230,0.00,VWS V14.01,2013-05-15 15:30:00,
2013-05-15 11:35:00,74.4,52.9,29.70,WNW,299,8.0,13.0,47,0.00,,SCT230,0.00,VWS V14.01,2013-05-15 15:35:00,
2013-05-15 11:40:00,74.5,52.4,29.70,WSW,253,2.0,11.0,46,0.00,,SCT230,0.00,VWS V14.01,2013-05-15 15:40:00,
2013-05-15 11:45:00,74.7,54.3,29.71,NW,305,8.0,8.0,49,0.00,,SCT230,0.00,VWS V14.01,2013-05-15 15:45:00,
2013-05-15 11:50:00,74.8,52.7,29.71,WSW,254,2.0,7.0,46,0.00,,SCT230,0.00,VWS V14.01,2013-05-15 15:50:00,
2013-05-15 11:55:00,74.9,52.8,29.71,WSW,241,11.0,11.0,46,0.00,,SCT230,0.00,VWS V14.01,2013-05-15 15:55:00,
2013-05-15 12:01:00,75.1,52.9,29.72,NW,311,7.0,13.0,46,0.00,,SCT230,0.00,VWS V14.01,2013-05-15 16:01:00,
2013-05-15 12:07:00,75.4,53.8,29.72,WSW,251,0.0,10.0,47,0.00,,SCT230,0.00,VWS V14.01,2013-05-15 16:07:00,
2013-05-15 12:12:00,75.3,53.1,29.72,WNW,286,10.0,16.0,46,0.00,,SCT230,0.00,VWS V14.01,2013-05-15 16:12:00,
2013-05-15 12:17:00,75.3,54.8,29.72,WSW,255,0.0,2.0,49,0.00,,SCT230,0.00,VWS V14.01,2013-05-15 16:17:00,
2013-05-15 12:22:00,75.5,53.9,29.72,West,270,9.0,9.0,47,0.00,,SCT230,0.00,VWS V14.01,2013-05-15 16:22:00,
2013-05-15 12:28:00,75.7,54.1,29.72,WNW,303,8.0,8.0,47,0.00,,SCT230,0.00,VWS V14.01,2013-05-15 16:28:00,
2013-05-15 12:34:00,75.7,54.1,29.72,WSW,249,7.0,10.0,47,0.00,,SCT230,0.00,VWS V14.01,2013-05-15 16:34:00,
2013-05-15 12:39:00,75.6,53.4,29.72,NNW,334,8.0,8.0,46,0.00,,SCT230,0.00,VWS V14.01,2013-05-15 16:39:00,
2013-05-15 12:44:00,75.4,52.6,29.72,NW,322,14.0,16.0,45,0.00,,SCT230,0.00,VWS V14.01,2013-05-15 16:44:00,
2013-05-15 12:50:00,75.3,53.1,29.72,West,278,10.0,12.0,46,0.00,,SCT230,0.00,VWS V14.01,2013-05-15 16:50:00,
2013-05-15 12:55:00,75.3,54.3,29.72,NNW,336,0.0,6.0,48,0.00,,SCT230,0.00,VWS V14.01,2013-05-15 16:55:00,
2013-05-15 13:00:00,75.6,54.0,29.72,WNW,303,2.0,9.0,47,0.00,,SCT230,0.00,VWS V14.01,2013-05-15 17:00:00,
2013-05-15 13:06:00,75.8,53.0,29.72,WNW,296,0.0,11.0,45,0.00,,SCT230,0.00,VWS V14.01,2013-05-15 17:06:00,
2013-05-15 13:12:00,75.9,54.8,29.71,NW,307,5.0,9.0,48,0.00,,SCT230,0.00,VWS V14.01,2013-05-15 17:12:00,
2013-05-15 13:19:00,76.2,54.5,29.71,WSW,249,0.0,11.0,47,0.00,,SCT230,0.00,VWS V14.01,2013-05-15 17:19:00,
2013-05-15 13:25:00,76.4,54.1,29.72,SW,227,0.0,0.0,46,0.00,,SCT230,0.00,VWS V14.01,2013-05-15 17:25:00,
2013-05-15 13:30:00,76.1,54.4,29.71,WSW,240,0.0,3.0,47,0.00,,SCT230,0.00,VWS V14.01,2013-05-15 17:30:00,
2013-05-15 13:36:00,76.3,55.8,29.71,WNW,284,1.0,14.0,49,0.00,,SCT230,0.00,VWS V14.01,2013-05-15 17:36:00,
2013-05-15 13:41:00,76.1,53.8,29.71,WSW,247,11.0,12.0,46,0.00,,SCT230,0.00,VWS V14.01,2013-05-15 17:41:00,
2013-05-15 13:46:00,75.6,52.8,29.71,West,259,4.0,8.0,45,0.00,,SCT230,0.00,VWS V14.01,2013-05-15 17:46:00,
2013-05-15 13:51:00,75.4,53.8,29.72,WSW,243,9.0,9.0,47,0.00,,SCT230,0.00,VWS V14.01,2013-05-15 17:51:00,
2013-05-15 13:57:00,75.3,52.5,29.73,WNW,296,14.0,15.0,45,0.00,,SCT230,0.00,VWS V14.01,2013-05-15 17:57:00,
2013-05-15 14:02:00,75.4,52.6,29.72,WNW,282,6.0,6.0,45,0.00,,FEW210,0.00,VWS V14.01,2013-05-15 18:02:00,
2013-05-15 14:08:00,75.4,52.6,29.73,West,272,7.0,15.0,45,0.00,,FEW210,0.00,VWS V14.01,2013-05-15 18:08:00,
2013-05-15 14:13:00,75.4,52.6,29.72,West,277,2.0,6.0,45,0.00,,FEW210,0.00,VWS V14.01,2013-05-15 18:13:00,
2013-05-15 14:19:00,75.8,53.0,29.72,West,263,3.0,5.0,45,0.00,,FEW210,0.00,VWS V14.01,2013-05-15 18:19:00,
2013-05-15 14:24:00,75.7,52.3,29.73,WSW,255,0.0,2.0,44,0.00,,FEW210,0.00,VWS V14.01,2013-05-15 18:24:00,
2013-05-15 14:30:00,76.1,53.2,29.72,WSW,247,5.0,7.0,45,0.00,,FEW210,0.00,VWS V14.01,2013-05-15 18:30:00,
2013-05-15 14:35:00,75.9,51.8,29.72,West,263,0.0,4.0,43,0.00,,FEW210,0.00,VWS V14.01,2013-05-15 18:35:00,
2013-05-15 14:41:00,76.4,52.9,29.71,WSW,255,4.0,7.0,44,0.00,,FEW210,0.00,VWS V14.01,2013-05-15 18:41:00,
2013-05-15 14:46:00,76.7,53.8,29.72,West,261,14.0,14.0,45,0.00,,FEW210,0.00,VWS V14.01,2013-05-15 18:46:00,
2013-05-15 14:53:00,76.5,52.4,29.72,NNW,334,7.0,12.0,43,0.00,,FEW210,0.00,VWS V14.01,2013-05-15 18:53:00,
2013-05-15 14:58:00,76.8,52.6,29.72,SW,224,0.0,3.0,43,0.00,,FEW210,0.00,VWS V14.01,2013-05-15 18:58:00,
2013-05-15 15:03:00,77.5,53.3,29.72,WNW,285,6.0,9.0,43,0.00,,FEW210,0.00,VWS V14.01,2013-05-15 19:03:00,
2013-05-15 15:08:00,77.4,49.8,29.72,NW,309,3.0,4.0,38,0.00,,FEW210,0.00,VWS V14.01,2013-05-15 19:08:00,
2013-05-15 15:14:00,77.6,48.6,29.72,NW,317,0.0,4.0,36,0.00,,FEW230,0.00,VWS V14.01,2013-05-15 19:14:00,
2013-05-15 15:19:00,78.0,50.4,29.71,West,270,3.0,13.0,38,0.00,,FEW230,0.00,VWS V14.01,2013-05-15 19:19:00,
2013-05-15 15:24:00,78.1,49.7,29.72,WNW,287,8.0,9.0,37,0.00,,FEW230,0.00,VWS V14.01,2013-05-15 19:24:00,
2013-05-15 15:29:00,78.2,49.8,29.73,North,9,3.0,9.0,37,0.00,,FEW230,0.00,VWS V14.01,2013-05-15 19:29:00,
2013-05-15 15:35:00,78.3,47.7,29.73,WNW,301,6.0,6.0,34,0.00,,FEW230,0.00,VWS V14.01,2013-05-15 19:35:00,
2013-05-15 15:40:00,78.3,49.2,29.73,WSW,255,1.0,6.0,36,0.00,,FEW230,0.00,VWS V14.01,2013-05-15 19:40:00,
2013-05-15 15:45:00,78.7,51.7,29.73,WSW,245,11.0,12.0,39,0.00,,FEW230,0.00,VWS V14.01,2013-05-15 19:45:00,
2013-05-15 15:51:00,78.6,51.6,29.73,SW,218,1.0,8.0,39,0.00,,FEW230,0.00,VWS V14.01,2013-05-15 19:51:00,
2013-05-15 15:58:00,78.4,52.8,29.73,West,261,8.0,13.0,41,0.00,,FEW230,0.00,VWS V14.01,2013-05-15 19:58:00,
2013-05-15 16:04:00,78.3,52.0,29.72,WSW,250,13.0,13.0,40,0.00,,FEW230,0.00,VWS V14.01,2013-05-15 20:04:00,
2013-05-15 16:09:00,77.8,52.2,29.73,SSW,205,11.0,15.0,41,0.00,,FEW230,0.00,VWS V14.01,2013-05-15 20:09:00,
2013-05-15 16:14:00,77.4,52.5,29.73,WSW,247,7.0,9.0,42,0.00,,FEW230,0.00,VWS V14.01,2013-05-15 20:14:00,
2013-05-15 16:19:00,77.0,51.5,29.73,WSW,255,7.0,11.0,41,0.00,,FEW230,0.00,VWS V14.01,2013-05-15 20:19:00,
2013-05-15 16:26:00,76.8,51.3,29.73,West,272,12.0,12.0,41,0.00,,FEW230,0.00,VWS V14.01,2013-05-15 20:26:00,
2013-05-15 16:31:00,76.3,50.9,29.73,WSW,239,10.0,12.0,41,0.00,,FEW230,0.00,VWS V14.01,2013-05-15 20:31:00,
2013-05-15 16:36:00,76.2,51.5,29.73,SW,230,8.0,13.0,42,0.00,,FEW230,0.00,VWS V14.01,2013-05-15 20:36:00,
2013-05-15 16:41:00,76.1,51.4,29.73,SW,217,10.0,10.0,42,0.00,,FEW230,0.00,VWS V14.01,2013-05-15 20:41:00,
2013-05-15 16:47:00,76.1,50.7,29.73,WSW,248,10.0,18.0,41,0.00,,FEW230,0.00,VWS V14.01,2013-05-15 20:47:00,
2013-05-15 16:53:00,76.2,51.5,29.73,WSW,238,3.0,12.0,42,0.00,,FEW230,0.00,VWS V14.01,2013-05-15 20:53:00,
2013-05-15 16:58:00,76.3,50.2,29.73,SW,229,5.0,12.0,40,0.00,,FEW230,0.00,VWS V14.01,2013-05-15 20:58:00,
2013-05-15 17:03:00,76.3,51.5,29.73,WSW,243,9.0,13.0,42,0.00,,FEW230,0.00,VWS V14.01,2013-05-15 21:03:00,
2013-05-15 17:08:00,76.3,49.5,29.73,West,263,2.0,17.0,39,0.00,,FEW230,0.00,VWS V14.01,2013-05-15 21:08:00,
2013-05-15 17:13:00,76.2,50.1,29.73,West,271,12.0,15.0,40,0.00,,SCT210,0.00,VWS V14.01,2013-05-15 21:13:00,
2013-05-15 17:18:00,76.1,51.4,29.73,WNW,289,0.0,3.0,42,0.00,,SCT210,0.00,VWS V14.01,2013-05-15 21:18:00,
2013-05-15 17:24:00,76.2,48.8,29.73,WSW,258,8.0,12.0,38,0.00,,SCT210,0.00,VWS V14.01,2013-05-15 21:24:00,
2013-05-15 17:29:00,76.1,48.0,29.73,WNW,286,0.0,9.0,37,0.00,,SCT210,0.00,VWS V14.01,2013-05-15 21:29:00,
2013-05-15 17:35:00,76.0,49.3,29.73,WSW,258,2.0,12.0,39,0.00,,SCT210,0.00,VWS V14.01,2013-05-15 21:35:00,
2013-05-15 17:40:00,75.8,47.7,29.73,SW,230,8.0,9.0,37,0.00,,SCT210,0.00,VWS V14.01,2013-05-15 21:40:00,
2013-05-15 17:45:00,75.5,48.1,29.74,WSW,251,9.0,13.0,38,0.00,,SCT210,0.00,VWS V14.01,2013-05-15 21:45:00,
2013-05-15 17:51:00,75.3,48.7,29.74,WNW,286,10.0,13.0,39,0.00,,SCT210,0.00,VWS V14.01,2013-05-15 21:51:00,
2013-05-15 17:56:00,74.6,46.6,29.73,WSW,249,0.0,3.0,37,0.00,,SCT210,0.00,VWS V14.01,2013-05-15 21:56:00,
2013-05-15 18:01:00,74.0,47.5,29.73,WSW,257,1.0,5.0,39,0.00,,SCT210,0.00,VWS V14.01,2013-05-15 22:01:00,
2013-05-15 18:06:00,73.7,46.5,29.73,WSW,252,0.0,3.0,38,0.00,,SCT210,0.00,VWS V14.01,2013-05-15 22:06:00,
2013-05-15 18:11:00,73.6,47.1,29.73,West,271,0.0,3.0,39,0.00,,BKN250,0.00,VWS V14.01,2013-05-15 22:11:00,
2013-05-15 18:17:00,73.3,46.9,29.73,WSW,257,3.0,7.0,39,0.00,,BKN250,0.00,VWS V14.01,2013-05-15 22:17:00,
2013-05-15 18:22:00,73.1,47.4,29.73,West,268,2.0,11.0,40,0.00,,BKN250,0.00,VWS V14.01,2013-05-15 22:22:00,
2013-05-15 18:27:00,73.1,47.4,29.73,West,267,0.0,7.0,40,0.00,,BKN250,0.00,VWS V14.01,2013-05-15 22:27:00,
2013-05-15 18:32:00,73.1,47.4,29.73,West,270,5.0,6.0,40,0.00,,BKN250,0.00,VWS V14.01,2013-05-15 22:32:00,
2013-05-15 18:38:00,73.0,47.9,29.73,West,261,0.0,8.0,41,0.00,,BKN250,0.00,VWS V14.01,2013-05-15 22:38:00,
2013-05-15 18:43:00,72.7,47.7,29.74,WSW,250,6.0,6.0,41,0.00,,BKN250,0.00,VWS V14.01,2013-05-15 22:43:00,
2013-05-15 18:49:00,72.2,46.6,29.75,WSW,244,2.0,11.0,40,0.00,,BKN250,0.00,VWS V14.01,2013-05-15 22:49:00,
2013-05-15 18:54:00,71.9,45.6,29.75,West,274,0.0,6.0,39,0.00,,BKN250,0.00,VWS V14.01,2013-05-15 22:54:00,
2013-05-15 19:00:00,71.7,44.8,29.74,West,259,2.0,9.0,38,0.00,,BKN250,0.00,VWS V14.01,2013-05-15 23:00:00,
2013-05-15 19:05:00,71.5,44.6,29.74,West,261,0.0,5.0,38,0.00,,BKN250,0.00,VWS V14.01,2013-05-15 23:05:00,
2013-05-15 19:10:00,71.4,44.5,29.74,WSW,256,2.0,2.0,38,0.00,,BKN250,0.00,VWS V14.01,2013-05-15 23:10:00,
2013-05-15 19:15:00,71.3,44.4,29.74,West,281,0.0,2.0,38,0.00,,BKN230,0.00,VWS V14.01,2013-05-15 23:15:00,
2013-05-15 19:21:00,71.2,44.3,29.74,WNW,282,0.0,7.0,38,0.00,,BKN230,0.00,VWS V14.01,2013-05-15 23:21:00,
2013-05-15 19:26:00,71.0,44.1,29.75,NNW,330,1.0,3.0,38,0.00,,BKN230,0.00,VWS V14.01,2013-05-15 23:26:00,
2013-05-15 19:31:00,70.9,44.0,29.74,WNW,290,0.0,0.0,38,0.00,,BKN230,0.00,VWS V14.01,2013-05-15 23:31:00,
2013-05-15 19:37:00,70.7,44.5,29.72,WNW,303,0.0,0.0,39,0.00,,BKN230,0.00,VWS V14.01,2013-05-15 23:37:00,
2013-05-15 19:43:00,70.6,44.5,29.74,West,260,0.0,0.0,39,0.00,,BKN230,0.00,VWS V14.01,2013-05-15 23:43:00,
2013-05-15 19:48:00,70.4,44.3,29.72,West,260,0.0,0.0,39,0.00,,BKN230,0.00,VWS V14.01,2013-05-15 23:48:00,
2013-05-15 19:53:00,70.3,44.9,29.72,West,260,0.0,0.0,40,0.00,,BKN230,0.00,VWS V14.01,2013-05-15 23:53:00,
2013-05-15 19:58:00,70.2,44.8,29.72,West,260,0.0,0.0,40,0.00,,BKN230,0.00,VWS V14.01,2013-05-15 23:58:00,
2013-05-15 20:03:00,70.2,45.4,29.72,West,260,0.0,0.0,41,0.00,,BKN230,0.00,VWS V14.01,2013-05-16 00:03:00,
2013-05-15 20:10:00,70.1,46.6,29.72,West,260,0.0,0.0,43,0.00,,BKN230,0.00,VWS V14.01,2013-05-16 00:10:00,
2013-05-15 20:15:00,70.0,45.9,29.73,West,260,0.0,0.0,42,0.00,,BKN230,0.00,VWS V14.01,2013-05-16 00:15:00,
2013-05-15 20:20:00,69.9,45.8,29.73,West,267,0.0,0.0,42,0.00,,BKN230,0.00,VWS V14.01,2013-05-16 00:20:00,
2013-05-15 20:25:00,69.7,46.2,29.74,West,273,0.0,0.0,43,0.00,,BKN230,0.00,VWS V14.01,2013-05-16 00:25:00,
2013-05-15 20:30:00,69.6,46.8,29.74,West,273,0.0,0.0,44,0.00,,BKN230,0.00,VWS V14.01,2013-05-16 00:30:00,
2013-05-15 20:35:00,69.5,46.0,29.74,West,273,0.0,0.0,43,0.00,,BKN230,0.00,VWS V14.01,2013-05-16 00:35:00,
2013-05-15 20:41:00,69.3,46.5,29.74,West,273,0.0,0.0,44,0.00,,BKN230,0.00,VWS V14.01,2013-05-16 00:41:00,
2013-05-15 20:46:00,69.1,46.3,29.74,West,273,0.0,0.0,44,0.00,,BKN230,0.00,VWS V14.01,2013-05-16 00:46:00,
2013-05-15 20:51:00,68.8,46.6,29.74,West,273,0.0,0.0,45,0.00,,BKN230,0.00,VWS V14.01,2013-05-16 00:51:00,
2013-05-15 20:57:00,68.5,46.3,29.74,West,273,0.0,0.0,45,0.00,,BKN230,0.00,VWS V14.01,2013-05-16 00:57:00,
2013-05-15 21:02:00,68.2,46.7,29.73,West,273,0.0,0.0,46,0.00,,BKN230,0.00,VWS V14.01,2013-05-16 01:02:00,
2013-05-15 21:07:00,67.8,46.9,29.74,West,273,0.0,0.0,47,0.00,,BKN230,0.00,VWS V14.01,2013-05-16 01:07:00,
2013-05-15 21:13:00,67.4,47.6,29.74,West,273,0.0,0.0,49,0.00,,BKN210,0.00,VWS V14.01,2013-05-16 01:13:00,
2013-05-15 21:19:00,66.9,47.7,29.74,West,273,0.0,0.0,50,0.00,,BKN210,0.00,VWS V14.01,2013-05-16 01:19:00,
2013-05-15 21:25:00,66.1,47.5,29.74,West,273,0.0,0.0,51,0.00,,BKN210,0.00,VWS V14.01,2013-05-16 01:25:00,
2013-05-15 21:30:00,65.4,47.8,29.74,West,273,0.0,0.0,53,0.00,,BKN210,0.00,VWS V14.01,2013-05-16 01:30:00,
2013-05-15 21:35:00,64.6,48.6,29.75,West,273,0.0,0.0,56,0.00,,BKN210,0.00,VWS V14.01,2013-05-16 01:35:00,
2013-05-15 21:41:00,64.0,48.9,29.75,West,273,0.0,0.0,58,0.00,,BKN210,0.00,VWS V14.01,2013-05-16 01:41:00,
2013-05-15 21:46:00,63.3,49.2,29.75,West,273,0.0,0.0,60,0.00,,BKN210,0.00,VWS V14.01,2013-05-16 01:46:00,
2013-05-15 21:52:00,62.7,49.5,29.75,West,273,0.0,0.0,62,0.00,,BKN210,0.00,VWS V14.01,2013-05-16 01:52:00,
2013-05-15 21:57:00,62.1,49.4,29.75,West,273,0.0,0.0,63,0.00,,BKN210,0.00,VWS V14.01,2013-05-16 01:57:00,
2013-05-15 22:02:00,61.6,49.3,29.76,West,273,0.0,0.0,64,0.00,,BKN210,0.00,VWS V14.01,2013-05-16 02:02:00,
2013-05-15 22:08:00,61.1,48.4,29.76,West,273,0.0,0.0,63,0.00,,BKN210,0.00,VWS V14.01,2013-05-16 02:08:00,
2013-05-15 22:13:00,60.4,48.2,29.76,West,273,0.0,0.0,64,0.00,,SCT210,0.00,VWS V14.01,2013-05-16 02:13:00,
2013-05-15 22:18:00,60.1,47.9,29.76,West,273,0.0,0.0,64,0.00,,SCT210,0.00,VWS V14.01,2013-05-16 02:18:00,
2013-05-15 22:23:00,59.6,47.4,29.76,West,273,0.0,0.0,64,0.00,,SCT210,0.00,VWS V14.01,2013-05-16 02:23:00,
2013-05-15 22:28:00,59.1,47.4,29.76,West,273,0.0,0.0,65,0.00,,SCT210,0.00,VWS V14.01,2013-05-16 02:28:00,
2013-05-15 22:34:00,58.8,47.9,29.76,West,273,0.0,0.0,67,0.00,,SCT210,0.00,VWS V14.01,2013-05-16 02:34:00,
2013-05-15 22:39:00,58.5,47.6,29.76,West,273,0.0,0.0,67,0.00,,SCT210,0.00,VWS V14.01,2013-05-16 02:39:00,
2013-05-15 22:44:00,58.1,46.8,29.76,West,273,0.0,0.0,66,0.00,,SCT210,0.00,VWS V14.01,2013-05-16 02:44:00,
2013-05-15 22:49:00,57.7,47.2,29.76,West,273,0.0,0.0,68,0.00,,SCT210,0.00,VWS V14.01,2013-05-16 02:49:00,
2013-05-15 22:55:00,57.5,47.8,29.77,West,273,0.0,0.0,70,0.00,,SCT210,0.00,VWS V14.01,2013-05-16 02:55:00,
2013-05-15 23:00:00,57.3,48.4,29.77,West,274,0.0,0.0,72,0.00,,SCT210,0.00,VWS V14.01,2013-05-16 03:00:00,
2013-05-15 23:05:00,56.9,47.6,29.77,West,273,0.0,0.0,71,0.00,,SCT210,0.00,VWS V14.01,2013-05-16 03:05:00,
2013-05-15 23:10:00,56.6,47.7,29.76,West,273,0.0,0.0,72,0.00,,SCT210,0.00,VWS V14.01,2013-05-16 03:10:00,
2013-05-15 23:15:00,56.3,47.8,29.76,West,273,0.0,0.0,73,0.00,,CLR,0.00,VWS V14.01,2013-05-16 03:15:00,
2013-05-15 23:21:00,56.1,48.7,29.76,West,273,0.0,0.0,76,0.00,,CLR,0.00,VWS V14.01,2013-05-16 03:21:00,
2013-05-15 23:27:00,55.9,48.8,29.76,West,273,0.0,0.0,77,0.00,,CLR,0.00,VWS V14.01,2013-05-16 03:27:00,
2013-05-15 23:32:00,55.6,48.5,29.76,West,273,0.0,0.0,77,0.00,,CLR,0.00,VWS V14.01,2013-05-16 03:32:00,
2013-05-15 23:38:00,55.4,48.7,29.76,West,273,0.0,0.0,78,0.00,,CLR,0.00,VWS V14.01,2013-05-16 03:38:00,
2013-05-15 23:43:00,55.1,48.4,29.76,West,273,0.0,0.0,78,0.00,,CLR,0.00,VWS V14.01,2013-05-16 03:43:00,
2013-05-15 23:48:00,54.8,48.1,29.76,West,273,0.0,0.0,78,0.00,,CLR,0.00,VWS V14.01,2013-05-16 03:48:00,
2013-05-15 23:54:00,54.6,47.9,29.76,West,273,0.0,0.0,78,0.00,,CLR,0.00,VWS V14.01,2013-05-16 03:54:00,
2013-05-15 23:59:00,54.3,47.6,29.76,West,273,0.0,0.0,78,0.00,,CLR,0.00,VWS V14.01,2013-05-16 03:59:00,